| time (UTC) | temp F | wind direction | speed knots | gust knots | rain 1hr in | rain 24hr in | rain mn in | humidity % | barometer mb |
| 20260502231142 | 63 | 0.0 | 0.0 | 0.00 | 0.00 | 0.00 | 50 | 1019.7 | |
| 20260502225642 | 64 | 0.0 | 0.0 | 0.00 | 0.00 | 0.00 | 49 | 1019.9 | |
| 20260502224142 | 64 | 0.0 | 0.0 | 0.00 | 0.00 | 0.00 | 48 | 1019.9 | |
| 20260502222642 | 64 | 0.0 | 0.0 | 0.00 | 0.00 | 0.00 | 47 | 1020.0 | |
| 20260502221142 | 65 | 0.0 | 0.0 | 0.00 | 0.00 | 0.00 | 47 | 1020.0 | |
| 20260502215642 | 65 | 0.0 | 0.0 | 0.00 | 0.00 | 0.00 | 46 | 1020.0 | |
| 20260502214142 | 65 | 0.0 | 0.0 | 0.00 | 0.00 | 0.00 | 46 | 1019.9 | |
| 20260502212642 | 66 | 0.0 | 0.0 | 0.00 | 0.00 | 0.00 | 47 | 1019.9 | |
| 20260502211142 | 66 | 0.0 | 0.0 | 0.00 | 0.00 | 0.00 | 47 | 1019.8 | |
| 20260502205642 | 66 | 0.0 | 0.0 | 0.00 | 0.00 | 0.00 | 48 | 1019.8 | |
| 20260502204142 | 67 | 0.0 | 0.0 | 0.00 | 0.00 | 0.00 | 48 | 1019.8 | |
| 20260502202642 | 67 | 0.0 | 0.0 | 0.00 | 0.00 | 0.00 | 48 | 1019.9 | |
| 20260502201141 | 68 | 0.0 | 0.0 | 0.00 | 0.00 | 0.00 | 47 | 1020.0 | |
| 20260502195641 | 68 | 0.0 | 0.0 | 0.00 | 0.00 | 0.00 | 47 | 1020.0 | |
| 20260502194142 | 69 | 0.0 | 0.0 | 0.00 | 0.00 | 0.00 | 46 | 1019.9 | |
| 20260502192641 | 69 | 0.0 | 0.0 | 0.00 | 0.00 | 0.00 | 45 | 1019.8 | |
| 20260502191141 | 70 | 0.0 | 0.0 | 0.00 | 0.00 | 0.00 | 44 | 1019.8 | |
| 20260502185641 | 70 | 0.0 | 0.0 | 0.00 | 0.00 | 0.00 | 43 | 1019.7 | |
| 20260502184141 | 71 | 0.0 | 0.0 | 0.00 | 0.00 | 0.00 | 42 | 1019.6 | |
| 20260502182641 | 72 | 0.0 | 0.0 | 0.00 | 0.00 | 0.00 | 41 | 1019.5 | |
| 20260502181141 | 72 | 0.0 | 0.0 | 0.00 | 0.00 | 0.00 | 40 | 1019.4 | |
| 20260502164141 | 75 | 0.0 | 0.0 | 0.00 | 0.00 | 0.00 | 37 | 1019.5 | |
| 20260502162641 | 75 | 0.0 | 0.0 | 0.00 | 0.00 | 0.00 | 36 | 1019.6 | |
| 20260502161141 | 75 | 0.0 | 0.0 | 0.00 | 0.00 | 0.00 | 35 | 1019.6 | |
| 20260502151141 | 75 | 0.0 | 0.0 | 0.00 | 0.00 | 0.00 | 29 | 1020.2 | |
| 20260502122641 | 76 | 0.0 | 0.0 | 0.00 | 0.00 | 0.00 | 29 | 1022.3 | |
| 20260502121141 | 76 | 0.0 | 0.0 | 0.00 | 0.00 | 0.00 | 29 | 1022.5 | |
| 20260502115641 | 76 | 0.0 | 0.0 | 0.00 | 0.00 | 0.00 | 29 | 1022.6 | |
| 20260502114141 | 77 | 0.0 | 0.0 | 0.00 | 0.00 | 0.00 | 29 | 1022.8 | |
| 20260502112641 | 77 | 0.0 | 0.0 | 0.00 | 0.00 | 0.00 | 29 | 1023.0 | |
| 20260502111141 | 77 | 0.0 | 0.0 | 0.00 | 0.00 | 0.00 | 30 | 1023.3 | |
| 20260502105641 | 76 | 0.0 | 0.0 | 0.00 | 0.00 | 0.00 | 30 | 1023.4 | |
| 20260502104141 | 76 | 0.0 | 0.0 | 0.00 | 0.00 | 0.00 | 29 | 1023.7 | |
| 20260502102641 | 76 | 0.0 | 0.0 | 0.00 | 0.00 | 0.00 | 30 | 1023.9 | |
| 20260502101141 | 76 | 0.0 | 0.0 | 0.00 | 0.00 | 0.00 | 32 | 1023.9 | |
| 20260502091141 | 74 | 0.0 | 0.0 | 0.00 | 0.00 | 0.00 | 35 | 1024.6 | |
| 20260502071141 | 70 | 0.0 | 0.0 | 0.00 | 0.00 | 0.00 | 37 | 1025.4 | |
| 20260502065641 | 69 | 0.0 | 0.0 | 0.00 | 0.00 | 0.00 | 38 | 1025.5 | |
| 20260502064141 | 70 | 0.0 | 0.0 | 0.00 | 0.00 | 0.00 | 38 | 1025.5 | |
| 20260502062641 | 70 | 0.0 | 0.0 | 0.00 | 0.00 | 0.00 | 39 | 1025.5 | |
| 20260502061141 | 68 | 0.0 | 0.0 | 0.00 | 0.00 | 0.00 | 41 | 1025.5 | |
| 20260502055641 | 66 | 0.0 | 0.0 | 0.00 | 0.00 | 0.00 | 43 | 1025.7 | |
| 20260502054141 | 65 | 0.0 | 0.0 | 0.00 | 0.00 | 0.00 | 45 | 1025.6 | |
| 20260502052641 | 62 | 0.0 | 0.0 | 0.00 | 0.00 | 0.00 | 48 | 1025.6 | |
| 20260502051141 | 59 | 0.0 | 0.0 | 0.00 | 0.00 | 0.00 | 51 | 1025.7 | |
| 20260502045641 | 56 | 0.0 | 0.0 | 0.00 | 0.00 | 0.00 | 54 | 1025.6 | |
| 20260502044141 | 55 | 0.0 | 0.0 | 0.00 | 0.00 | 0.00 | 55 | 1025.6 | |
| 20260502042641 | 55 | 0.0 | 0.0 | 0.00 | 0.00 | 0.00 | 53 | 1025.6 | |
| 20260502041141 | 55 | 0.0 | 0.0 | 0.00 | 0.00 | 0.00 | 52 | 1025.5 | |
| 20260502035641 | 55 | 0.0 | 0.0 | 0.00 | 0.00 | 0.00 | 52 | 1025.6 | |
| 20260502034141 | 54 | 0.0 | 0.0 | 0.00 | 0.00 | 0.00 | 51 | 1025.6 | |
| 20260502032641 | 54 | 0.0 | 0.0 | 0.00 | 0.00 | 0.00 | 51 | 1025.6 | |
| 20260502031141 | 55 | 0.0 | 0.0 | 0.00 | 0.00 | 0.00 | 50 | 1025.6 | |
| 20260502025641 | 55 | 0.0 | 0.0 | 0.00 | 0.00 | 0.00 | 51 | 1025.7 | |
| 20260502024141 | 55 | 0.0 | 0.0 | 0.00 | 0.00 | 0.00 | 51 | 1025.8 | |
| 20260502022642 | 55 | 0.0 | 0.0 | 0.00 | 0.00 | 0.00 | 49 | 1025.8 | |
| 20260502021142 | 56 | 0.0 | 0.0 | 0.00 | 0.00 | 0.00 | 49 | 1025.8 | |
| 20260502015642 | 56 | 0.0 | 0.0 | 0.00 | 0.00 | 0.00 | 49 | 1025.8 | |
| 20260502014142 | 56 | 0.0 | 0.0 | 0.00 | 0.00 | 0.00 | 48 | 1025.8 | |
| 20260502012642 | 56 | 0.0 | 0.0 | 0.00 | 0.00 | 0.00 | 47 | 1025.8 | |
| 20260502011142 | 56 | 0.0 | 0.0 | 0.00 | 0.00 | 0.00 | 47 | 1025.8 | |
| 20260502005642 | 57 | 0.0 | 0.0 | 0.00 | 0.00 | 0.00 | 47 | 1025.8 | |
| 20260502004142 | 57 | 0.0 | 0.0 | 0.00 | 0.00 | 0.00 | 46 | 1025.7 | |
| 20260502002642 | 57 | 0.0 | 0.0 | 0.00 | 0.00 | 0.00 | 46 | 1025.7 | |
| 20260502001142 | 58 | 0.0 | 0.0 | 0.00 | 0.00 | 0.00 | 44 | 1025.8 | |
| 20260501235642 | 58 | 0.0 | 0.0 | 0.00 | 0.00 | 0.00 | 44 | 1025.8 | |
| 20260501234142 | 59 | 0.0 | 0.0 | 0.00 | 0.00 | 0.00 | 43 | 1025.9 | |
| 20260501232642 | 59 | 0.0 | 0.0 | 0.00 | 0.00 | 0.00 | 44 | 1025.8 |